sensor_id;sensor_type;location;lat;lon;timestamp;temperature;humidity
33825;DHT22;20127;48.962;8.342;2022-10-04T00:00:39;9.00;99.90
33825;DHT22;20127;48.962;8.342;2022-10-04T00:03:43;9.00;99.90
33825;DHT22;20127;48.962;8.342;2022-10-04T00:06:51;9.00;99.90
33825;DHT22;20127;48.962;8.342;2022-10-04T00:09:56;8.90;99.90
33825;DHT22;20127;48.962;8.342;2022-10-04T00:12:59;8.90;99.90
33825;DHT22;20127;48.962;8.342;2022-10-04T00:16:03;8.90;99.90
33825;DHT22;20127;48.962;8.342;2022-10-04T00:19:24;8.80;99.90
33825;DHT22;20127;48.962;8.342;2022-10-04T00:22:28;8.80;99.90
33825;DHT22;20127;48.962;8.342;2022-10-04T00:25:34;8.90;99.90
33825;DHT22;20127;48.962;8.342;2022-10-04T00:28:43;8.80;99.90
33825;DHT22;20127;48.962;8.342;2022-10-04T00:32:23;8.80;99.90
33825;DHT22;20127;48.962;8.342;2022-10-04T00:35:45;8.70;99.90
33825;DHT22;20127;48.962;8.342;2022-10-04T00:39:24;8.70;99.90
33825;DHT22;20127;48.962;8.342;2022-10-04T00:42:45;8.60;99.90
33825;DHT22;20127;48.962;8.342;2022-10-04T00:45:52;8.60;99.90
33825;DHT22;20127;48.962;8.342;2022-10-04T00:48:57;8.60;99.90
33825;DHT22;20127;48.962;8.342;2022-10-04T00:52:02;8.60;99.90
33825;DHT22;20127;48.962;8.342;2022-10-04T00:55:09;8.50;99.90
33825;DHT22;20127;48.962;8.342;2022-10-04T00:58:21;8.50;99.90
33825;DHT22;20127;48.962;8.342;2022-10-04T01:01:26;8.50;99.90
33825;DHT22;20127;48.962;8.342;2022-10-04T01:04:36;8.50;99.90
33825;DHT22;20127;48.962;8.342;2022-10-04T01:07:42;8.50;99.90
33825;DHT22;20127;48.962;8.342;2022-10-04T01:10:49;8.40;99.90
33825;DHT22;20127;48.962;8.342;2022-10-04T01:13:56;8.40;99.90
33825;DHT22;20127;48.962;8.342;2022-10-04T01:16:58;8.40;99.90
33825;DHT22;20127;48.962;8.342;2022-10-04T01:20:00;8.40;99.90
33825;DHT22;20127;48.962;8.342;2022-10-04T01:23:04;8.40;99.90
33825;DHT22;20127;48.962;8.342;2022-10-04T01:26:37;8.40;99.90
33825;DHT22;20127;48.962;8.342;2022-10-04T01:29:39;8.30;99.90
33825;DHT22;20127;48.962;8.342;2022-10-04T01:32:41;8.20;99.90
33825;DHT22;20127;48.962;8.342;2022-10-04T01:35:43;8.20;99.90
33825;DHT22;20127;48.962;8.342;2022-10-04T01:38:46;8.20;99.90
33825;DHT22;20127;48.962;8.342;2022-10-04T01:41:54;8.10;99.90
33825;DHT22;20127;48.962;8.342;2022-10-04T01:45:00;8.20;99.90
33825;DHT22;20127;48.962;8.342;2022-10-04T01:48:07;8.10;99.90
33825;DHT22;20127;48.962;8.342;2022-10-04T01:51:13;8.20;99.90
33825;DHT22;20127;48.962;8.342;2022-10-04T01:54:21;8.10;99.90
33825;DHT22;20127;48.962;8.342;2022-10-04T01:57:31;8.10;99.90
33825;DHT22;20127;48.962;8.342;2022-10-04T02:00:37;8.00;99.90
33825;DHT22;20127;48.962;8.342;2022-10-04T02:03:42;8.00;99.90
33825;DHT22;20127;48.962;8.342;2022-10-04T02:06:47;8.00;99.90
33825;DHT22;20127;48.962;8.342;2022-10-04T02:09:56;8.00;99.90
33825;DHT22;20127;48.962;8.342;2022-10-04T02:12:59;8.00;99.90
33825;DHT22;20127;48.962;8.342;2022-10-04T02:16:02;8.10;99.90
33825;DHT22;20127;48.962;8.342;2022-10-04T02:19:08;8.00;99.90
33825;DHT22;20127;48.962;8.342;2022-10-04T02:22:10;8.00;99.90
33825;DHT22;20127;48.962;8.342;2022-10-04T02:25:14;7.90;99.90
33825;DHT22;20127;48.962;8.342;2022-10-04T02:28:17;7.90;99.90
33825;DHT22;20127;48.962;8.342;2022-10-04T02:31:21;7.90;99.90
33825;DHT22;20127;48.962;8.342;2022-10-04T02:34:40;7.90;99.90
33825;DHT22;20127;48.962;8.342;2022-10-04T02:37:42;7.90;99.90
33825;DHT22;20127;48.962;8.342;2022-10-04T02:40:52;7.90;99.90
33825;DHT22;20127;48.962;8.342;2022-10-04T02:43:59;7.90;99.90
33825;DHT22;20127;48.962;8.342;2022-10-04T02:47:07;7.80;99.90
33825;DHT22;20127;48.962;8.342;2022-10-04T02:50:19;7.80;99.90
33825;DHT22;20127;48.962;8.342;2022-10-04T02:53:25;7.80;99.90
33825;DHT22;20127;48.962;8.342;2022-10-04T02:56:33;7.80;99.90
33825;DHT22;20127;48.962;8.342;2022-10-04T02:59:38;7.70;99.90
33825;DHT22;20127;48.962;8.342;2022-10-04T03:02:40;7.70;99.90
33825;DHT22;20127;48.962;8.342;2022-10-04T03:05:44;7.70;99.90
33825;DHT22;20127;48.962;8.342;2022-10-04T03:08:50;7.70;99.90
33825;DHT22;20127;48.962;8.342;2022-10-04T03:11:54;7.60;99.90
33825;DHT22;20127;48.962;8.342;2022-10-04T03:14:56;7.60;99.90
33825;DHT22;20127;48.962;8.342;2022-10-04T03:17:58;7.60;99.90
33825;DHT22;20127;48.962;8.342;2022-10-04T03:21:01;7.50;99.90
33825;DHT22;20127;48.962;8.342;2022-10-04T03:24:04;7.50;99.90
33825;DHT22;20127;48.962;8.342;2022-10-04T03:27:08;7.50;99.90
33825;DHT22;20127;48.962;8.342;2022-10-04T03:30:15;7.50;99.90
33825;DHT22;20127;48.962;8.342;2022-10-04T03:33:21;7.50;99.90
33825;DHT22;20127;48.962;8.342;2022-10-04T03:36:24;7.40;99.90
33825;DHT22;20127;48.962;8.342;2022-10-04T03:39:30;7.40;99.90
33825;DHT22;20127;48.962;8.342;2022-10-04T03:42:35;7.40;99.90
33825;DHT22;20127;48.962;8.342;2022-10-04T03:45:39;7.40;99.90
33825;DHT22;20127;48.962;8.342;2022-10-04T03:48:44;7.40;99.90
33825;DHT22;20127;48.962;8.342;2022-10-04T03:51:48;7.40;99.90
33825;DHT22;20127;48.962;8.342;2022-10-04T03:54:53;7.40;99.90
33825;DHT22;20127;48.962;8.342;2022-10-04T03:57:58;7.30;99.90
33825;DHT22;20127;48.962;8.342;2022-10-04T04:01:34;7.30;99.90
33825;DHT22;20127;48.962;8.342;2022-10-04T04:04:42;7.30;99.90
33825;DHT22;20127;48.962;8.342;2022-10-04T04:07:55;7.30;99.90
33825;DHT22;20127;48.962;8.342;2022-10-04T04:11:02;7.30;99.90
33825;DHT22;20127;48.962;8.342;2022-10-04T04:14:09;7.20;99.90
33825;DHT22;20127;48.962;8.342;2022-10-04T04:17:29;7.20;99.90
33825;DHT22;20127;48.962;8.342;2022-10-04T04:20:35;7.20;99.90
33825;DHT22;20127;48.962;8.342;2022-10-04T04:23:40;7.20;99.90
33825;DHT22;20127;48.962;8.342;2022-10-04T04:26:46;7.20;99.90
33825;DHT22;20127;48.962;8.342;2022-10-04T04:29:52;7.10;99.90
33825;DHT22;20127;48.962;8.342;2022-10-04T04:32:55;7.10;99.90
33825;DHT22;20127;48.962;8.342;2022-10-04T04:36:03;7.20;99.90
33825;DHT22;20127;48.962;8.342;2022-10-04T04:39:07;7.20;99.90
33825;DHT22;20127;48.962;8.342;2022-10-04T04:42:29;7.20;99.90
33825;DHT22;20127;48.962;8.342;2022-10-04T04:45:35;7.10;99.90
33825;DHT22;20127;48.962;8.342;2022-10-04T04:48:37;7.20;99.90
33825;DHT22;20127;48.962;8.342;2022-10-04T04:51:40;7.20;99.90
33825;DHT22;20127;48.962;8.342;2022-10-04T04:54:46;7.10;99.90
33825;DHT22;20127;48.962;8.342;2022-10-04T04:57:51;7.10;99.90
33825;DHT22;20127;48.962;8.342;2022-10-04T05:00:58;7.10;99.90
33825;DHT22;20127;48.962;8.342;2022-10-04T05:04:02;7.00;99.90
33825;DHT22;20127;48.962;8.342;2022-10-04T05:07:13;7.00;99.90
33825;DHT22;20127;48.962;8.342;2022-10-04T05:10:29;7.00;99.90
33825;DHT22;20127;48.962;8.342;2022-10-04T05:13:35;7.00;99.90
33825;DHT22;20127;48.962;8.342;2022-10-04T05:16:42;7.00;99.90
33825;DHT22;20127;48.962;8.342;2022-10-04T05:19:45;7.10;99.90
33825;DHT22;20127;48.962;8.342;2022-10-04T05:22:47;7.10;99.90
33825;DHT22;20127;48.962;8.342;2022-10-04T05:25:51;7.10;99.90
33825;DHT22;20127;48.962;8.342;2022-10-04T05:28:53;7.00;99.90
33825;DHT22;20127;48.962;8.342;2022-10-04T05:32:04;7.00;99.90
33825;DHT22;20127;48.962;8.342;2022-10-04T05:35:14;7.00;99.90
33825;DHT22;20127;48.962;8.342;2022-10-04T05:38:25;7.00;99.90
33825;DHT22;20127;48.962;8.342;2022-10-04T05:41:31;7.00;99.90
33825;DHT22;20127;48.962;8.342;2022-10-04T05:44:45;7.00;99.90
33825;DHT22;20127;48.962;8.342;2022-10-04T05:47:52;7.00;99.90
33825;DHT22;20127;48.962;8.342;2022-10-04T05:50:54;7.00;99.90
33825;DHT22;20127;48.962;8.342;2022-10-04T05:53:58;7.00;99.90
33825;DHT22;20127;48.962;8.342;2022-10-04T05:57:22;7.10;99.90
33825;DHT22;20127;48.962;8.342;2022-10-04T06:00:35;7.30;99.90
33825;DHT22;20127;48.962;8.342;2022-10-04T06:03:59;7.40;99.90
33825;DHT22;20127;48.962;8.342;2022-10-04T06:07:14;7.50;99.90
33825;DHT22;20127;48.962;8.342;2022-10-04T06:17:48;8.00;99.90
33825;DHT22;20127;48.962;8.342;2022-10-04T06:21:17;8.20;99.90
33825;DHT22;20127;48.962;8.342;2022-10-04T06:24:21;8.30;99.90
33825;DHT22;20127;48.962;8.342;2022-10-04T06:27:29;8.30;99.90
33825;DHT22;20127;48.962;8.342;2022-10-04T06:30:45;8.40;99.90
33825;DHT22;20127;48.962;8.342;2022-10-04T06:34:13;8.50;99.90
33825;DHT22;20127;48.962;8.342;2022-10-04T06:37:37;8.70;99.90
33825;DHT22;20127;48.962;8.342;2022-10-04T06:41:06;8.90;99.90
33825;DHT22;20127;48.962;8.342;2022-10-04T06:44:25;9.10;99.90
33825;DHT22;20127;48.962;8.342;2022-10-04T06:47:45;9.20;99.90
33825;DHT22;20127;48.962;8.342;2022-10-04T06:50:55;9.30;99.90
33825;DHT22;20127;48.962;8.342;2022-10-04T06:54:12;9.50;99.90
33825;DHT22;20127;48.962;8.342;2022-10-04T06:57:34;9.60;99.90
33825;DHT22;20127;48.962;8.342;2022-10-04T07:00:48;9.70;99.90
33825;DHT22;20127;48.962;8.342;2022-10-04T07:03:56;9.90;99.90
33825;DHT22;20127;48.962;8.342;2022-10-04T07:07:12;10.00;99.90
33825;DHT22;20127;48.962;8.342;2022-10-04T07:10:32;10.30;99.90
33825;DHT22;20127;48.962;8.342;2022-10-04T07:13:42;10.50;99.90
33825;DHT22;20127;48.962;8.342;2022-10-04T07:16:48;10.70;99.90
33825;DHT22;20127;48.962;8.342;2022-10-04T07:19:52;10.90;99.90
33825;DHT22;20127;48.962;8.342;2022-10-04T07:22:57;11.00;99.90
33825;DHT22;20127;48.962;8.342;2022-10-04T07:26:05;11.20;99.90
33825;DHT22;20127;48.962;8.342;2022-10-04T07:29:14;11.30;99.90
33825;DHT22;20127;48.962;8.342;2022-10-04T07:32:26;11.50;99.90
33825;DHT22;20127;48.962;8.342;2022-10-04T07:35:33;11.70;99.90
33825;DHT22;20127;48.962;8.342;2022-10-04T07:38:36;11.90;99.90
33825;DHT22;20127;48.962;8.342;2022-10-04T07:41:45;12.10;99.90
33825;DHT22;20127;48.962;8.342;2022-10-04T07:44:59;12.30;99.90
33825;DHT22;20127;48.962;8.342;2022-10-04T07:48:08;12.50;99.90
33825;DHT22;20127;48.962;8.342;2022-10-04T07:51:18;12.70;99.90
33825;DHT22;20127;48.962;8.342;2022-10-04T07:54:25;12.90;99.90
33825;DHT22;20127;48.962;8.342;2022-10-04T07:57:40;13.00;99.90
33825;DHT22;20127;48.962;8.342;2022-10-04T08:00:49;13.20;99.90
33825;DHT22;20127;48.962;8.342;2022-10-04T08:04:10;13.30;99.90
33825;DHT22;20127;48.962;8.342;2022-10-04T08:07:19;13.30;99.90
33825;DHT22;20127;48.962;8.342;2022-10-04T08:10:24;13.40;99.90
33825;DHT22;20127;48.962;8.342;2022-10-04T08:13:37;13.50;99.90
33825;DHT22;20127;48.962;8.342;2022-10-04T08:16:52;13.60;99.90
33825;DHT22;20127;48.962;8.342;2022-10-04T08:20:06;13.80;99.90
33825;DHT22;20127;48.962;8.342;2022-10-04T08:23:32;14.00;99.90
33825;DHT22;20127;48.962;8.342;2022-10-04T08:26:52;14.10;99.90
33825;DHT22;20127;48.962;8.342;2022-10-04T08:30:04;14.20;99.90
33825;DHT22;20127;48.962;8.342;2022-10-04T08:33:11;14.50;99.90
33825;DHT22;20127;48.962;8.342;2022-10-04T08:36:28;14.70;99.90
33825;DHT22;20127;48.962;8.342;2022-10-04T08:39:40;14.80;99.90
33825;DHT22;20127;48.962;8.342;2022-10-04T08:43:12;14.90;99.90
33825;DHT22;20127;48.962;8.342;2022-10-04T08:46:46;15.00;99.90
33825;DHT22;20127;48.962;8.342;2022-10-04T08:50:32;15.00;99.90
33825;DHT22;20127;48.962;8.342;2022-10-04T08:57:41;15.40;99.90
33825;DHT22;20127;48.962;8.342;2022-10-04T09:01:05;15.80;99.90
33825;DHT22;20127;48.962;8.342;2022-10-04T09:08:22;16.40;99.90
33825;DHT22;20127;48.962;8.342;2022-10-04T09:11:42;16.60;99.80
33825;DHT22;20127;48.962;8.342;2022-10-04T09:14:59;16.70;99.60
33825;DHT22;20127;48.962;8.342;2022-10-04T09:18:17;16.80;99.40
33825;DHT22;20127;48.962;8.342;2022-10-04T09:21:41;16.60;99.10
33825;DHT22;20127;48.962;8.342;2022-10-04T09:25:04;16.40;99.20
33825;DHT22;20127;48.962;8.342;2022-10-04T09:28:23;16.40;99.40
33825;DHT22;20127;48.962;8.342;2022-10-04T09:35:21;16.60;99.30
33825;DHT22;20127;48.962;8.342;2022-10-04T09:39:11;16.70;98.80
33825;DHT22;20127;48.962;8.342;2022-10-04T09:42:38;16.70;98.30
33825;DHT22;20127;48.962;8.342;2022-10-04T09:45:55;17.00;98.40
33825;DHT22;20127;48.962;8.342;2022-10-04T09:49:14;17.70;97.60
33825;DHT22;20127;48.962;8.342;2022-10-04T09:52:28;18.00;97.00
33825;DHT22;20127;48.962;8.342;2022-10-04T09:55:55;18.30;96.40
33825;DHT22;20127;48.962;8.342;2022-10-04T10:03:18;19.60;94.40
33825;DHT22;20127;48.962;8.342;2022-10-04T10:06:45;20.10;92.80
33825;DHT22;20127;48.962;8.342;2022-10-04T10:09:58;20.40;92.00
33825;DHT22;20127;48.962;8.342;2022-10-04T10:13:25;20.70;91.10
33825;DHT22;20127;48.962;8.342;2022-10-04T10:16:55;21.00;90.20
33825;DHT22;20127;48.962;8.342;2022-10-04T10:20:28;21.30;88.10
33825;DHT22;20127;48.962;8.342;2022-10-04T10:23:49;21.50;87.40
33825;DHT22;20127;48.962;8.342;2022-10-04T10:27:01;21.80;85.80
33825;DHT22;20127;48.962;8.342;2022-10-04T10:30:19;22.10;84.90
33825;DHT22;20127;48.962;8.342;2022-10-04T10:37:12;22.70;81.60
33825;DHT22;20127;48.962;8.342;2022-10-04T10:40:51;23.00;80.70
33825;DHT22;20127;48.962;8.342;2022-10-04T10:44:25;23.50;77.60
33825;DHT22;20127;48.962;8.342;2022-10-04T10:47:39;23.70;77.00
33825;DHT22;20127;48.962;8.342;2022-10-04T10:50:52;23.70;75.00
33825;DHT22;20127;48.962;8.342;2022-10-04T10:54:29;23.80;74.10
33825;DHT22;20127;48.962;8.342;2022-10-04T10:58:12;24.00;73.10
33825;DHT22;20127;48.962;8.342;2022-10-04T11:01:36;24.20;71.10
33825;DHT22;20127;48.962;8.342;2022-10-04T11:04:50;24.30;71.10
33825;DHT22;20127;48.962;8.342;2022-10-04T11:07:54;24.50;70.70
33825;DHT22;20127;48.962;8.342;2022-10-04T11:11:16;24.70;69.90
33825;DHT22;20127;48.962;8.342;2022-10-04T11:18:12;25.10;67.80
33825;DHT22;20127;48.962;8.342;2022-10-04T11:21:40;24.90;68.30
33825;DHT22;20127;48.962;8.342;2022-10-04T11:28:34;24.90;67.70
33825;DHT22;20127;48.962;8.342;2022-10-04T11:35:37;25.20;66.60
33825;DHT22;20127;48.962;8.342;2022-10-04T11:38:50;25.30;66.80
33825;DHT22;20127;48.962;8.342;2022-10-04T11:41:55;25.30;65.80
33825;DHT22;20127;48.962;8.342;2022-10-04T11:45:16;25.40;66.40
33825;DHT22;20127;48.962;8.342;2022-10-04T11:48:31;25.60;66.10
33825;DHT22;20127;48.962;8.342;2022-10-04T11:55:32;26.00;63.80
33825;DHT22;20127;48.962;8.342;2022-10-04T11:58:48;26.20;63.60
33825;DHT22;20127;48.962;8.342;2022-10-04T12:09:00;26.30;62.80
33825;DHT22;20127;48.962;8.342;2022-10-04T12:12:27;26.30;61.90
33825;DHT22;20127;48.962;8.342;2022-10-04T12:16:13;26.30;62.00
33825;DHT22;20127;48.962;8.342;2022-10-04T12:19:37;26.50;61.40
33825;DHT22;20127;48.962;8.342;2022-10-04T12:23:02;26.60;61.30
33825;DHT22;20127;48.962;8.342;2022-10-04T12:26:37;26.90;60.90
33825;DHT22;20127;48.962;8.342;2022-10-04T12:30:17;27.20;59.50
33825;DHT22;20127;48.962;8.342;2022-10-04T12:33:24;27.20;58.90
33825;DHT22;20127;48.962;8.342;2022-10-04T12:36:48;27.30;59.20
33825;DHT22;20127;48.962;8.342;2022-10-04T12:40:06;27.40;59.20
33825;DHT22;20127;48.962;8.342;2022-10-04T12:43:19;27.60;58.70
33825;DHT22;20127;48.962;8.342;2022-10-04T12:46:31;27.70;58.20
33825;DHT22;20127;48.962;8.342;2022-10-04T12:49:41;27.80;58.10
33825;DHT22;20127;48.962;8.342;2022-10-04T12:52:49;28.00;57.90
33825;DHT22;20127;48.962;8.342;2022-10-04T12:56:05;28.10;57.20
33825;DHT22;20127;48.962;8.342;2022-10-04T12:59:29;28.20;56.20
33825;DHT22;20127;48.962;8.342;2022-10-04T13:06:14;28.00;55.40
33825;DHT22;20127;48.962;8.342;2022-10-04T13:09:28;27.60;55.60
33825;DHT22;20127;48.962;8.342;2022-10-04T13:12:43;27.40;56.50
33825;DHT22;20127;48.962;8.342;2022-10-04T13:15:51;27.40;57.00
33825;DHT22;20127;48.962;8.342;2022-10-04T13:19:02;27.50;55.90
33825;DHT22;20127;48.962;8.342;2022-10-04T13:22:30;27.70;56.10
33825;DHT22;20127;48.962;8.342;2022-10-04T13:26:06;27.70;55.80
33825;DHT22;20127;48.962;8.342;2022-10-04T13:29:20;28.00;55.50
33825;DHT22;20127;48.962;8.342;2022-10-04T13:32:24;28.10;55.00
33825;DHT22;20127;48.962;8.342;2022-10-04T13:35:31;28.20;54.00
33825;DHT22;20127;48.962;8.342;2022-10-04T13:38:51;28.40;54.10
33825;DHT22;20127;48.962;8.342;2022-10-04T13:42:04;28.40;53.30
33825;DHT22;20127;48.962;8.342;2022-10-04T13:45:25;28.40;53.30
33825;DHT22;20127;48.962;8.342;2022-10-04T13:48:47;28.40;53.60
33825;DHT22;20127;48.962;8.342;2022-10-04T13:52:09;28.50;53.40
33825;DHT22;20127;48.962;8.342;2022-10-04T13:55:37;28.50;53.00
33825;DHT22;20127;48.962;8.342;2022-10-04T13:59:05;28.50;52.80
33825;DHT22;20127;48.962;8.342;2022-10-04T14:06:22;28.40;52.70
33825;DHT22;20127;48.962;8.342;2022-10-04T14:17:00;28.00;53.70
33825;DHT22;20127;48.962;8.342;2022-10-04T14:28:06;28.00;53.90
33825;DHT22;20127;48.962;8.342;2022-10-04T14:36:08;27.70;54.50
33825;DHT22;20127;48.962;8.342;2022-10-04T14:39:38;27.50;54.70
33825;DHT22;20127;48.962;8.342;2022-10-04T14:43:07;27.50;54.70
33825;DHT22;20127;48.962;8.342;2022-10-04T15:11:15;27.10;55.50
33825;DHT22;20127;48.962;8.342;2022-10-04T15:22:08;25.70;57.60
33825;DHT22;20127;48.962;8.342;2022-10-04T15:25:43;25.10;59.20
33825;DHT22;20127;48.962;8.342;2022-10-04T15:53:56;21.50;72.10
33825;DHT22;20127;48.962;8.342;2022-10-04T15:57:21;21.20;74.00
33825;DHT22;20127;48.962;8.342;2022-10-04T16:00:28;20.90;75.10
33825;DHT22;20127;48.962;8.342;2022-10-04T16:03:47;20.70;76.60
33825;DHT22;20127;48.962;8.342;2022-10-04T16:06:58;20.40;78.00
33825;DHT22;20127;48.962;8.342;2022-10-04T16:10:16;20.30;79.70
33825;DHT22;20127;48.962;8.342;2022-10-04T16:13:30;20.10;81.60
33825;DHT22;20127;48.962;8.342;2022-10-04T16:16:53;19.80;83.20
33825;DHT22;20127;48.962;8.342;2022-10-04T16:20:22;19.70;84.80
33825;DHT22;20127;48.962;8.342;2022-10-04T16:23:30;19.40;86.20
33825;DHT22;20127;48.962;8.342;2022-10-04T16:30:21;19.00;89.50
33825;DHT22;20127;48.962;8.342;2022-10-04T16:33:28;18.80;90.50
33825;DHT22;20127;48.962;8.342;2022-10-04T16:36:45;18.70;91.30
33825;DHT22;20127;48.962;8.342;2022-10-04T16:39:53;18.50;92.00
33825;DHT22;20127;48.962;8.342;2022-10-04T16:43:03;18.40;92.60
33825;DHT22;20127;48.962;8.342;2022-10-04T16:46:11;18.10;93.30
33825;DHT22;20127;48.962;8.342;2022-10-04T16:49:22;18.00;94.00
33825;DHT22;20127;48.962;8.342;2022-10-04T16:52:48;17.80;94.90
33825;DHT22;20127;48.962;8.342;2022-10-04T16:55:54;17.60;95.70
33825;DHT22;20127;48.962;8.342;2022-10-04T16:59:01;17.50;96.40
33825;DHT22;20127;48.962;8.342;2022-10-04T17:15:14;16.40;99.90
33825;DHT22;20127;48.962;8.342;2022-10-04T17:19:07;16.10;99.90
33825;DHT22;20127;48.962;8.342;2022-10-04T17:27:12;15.80;99.90
33825;DHT22;20127;48.962;8.342;2022-10-04T17:30:49;15.80;99.90
33825;DHT22;20127;48.962;8.342;2022-10-04T17:34:46;15.70;99.90
33825;DHT22;20127;48.962;8.342;2022-10-04T17:38:10;15.50;99.90
33825;DHT22;20127;48.962;8.342;2022-10-04T17:49:37;15.30;99.90
33825;DHT22;20127;48.962;8.342;2022-10-04T17:53:00;15.00;99.90
33825;DHT22;20127;48.962;8.342;2022-10-04T17:56:31;15.00;99.90
33825;DHT22;20127;48.962;8.342;2022-10-04T17:59:39;14.80;99.90
33825;DHT22;20127;48.962;8.342;2022-10-04T18:02:54;14.70;99.90
33825;DHT22;20127;48.962;8.342;2022-10-04T18:06:03;14.70;99.90
33825;DHT22;20127;48.962;8.342;2022-10-04T18:09:19;14.50;99.90
33825;DHT22;20127;48.962;8.342;2022-10-04T18:12:28;14.40;99.90
33825;DHT22;20127;48.962;8.342;2022-10-04T18:15:34;14.30;99.90
33825;DHT22;20127;48.962;8.342;2022-10-04T18:18:40;14.30;99.90
33825;DHT22;20127;48.962;8.342;2022-10-04T18:21:51;14.10;99.90
33825;DHT22;20127;48.962;8.342;2022-10-04T18:25:10;14.10;99.90
33825;DHT22;20127;48.962;8.342;2022-10-04T18:28:13;14.00;99.90
33825;DHT22;20127;48.962;8.342;2022-10-04T18:31:29;13.90;99.90
33825;DHT22;20127;48.962;8.342;2022-10-04T18:34:31;13.70;99.90
33825;DHT22;20127;48.962;8.342;2022-10-04T18:37:36;13.70;99.90
33825;DHT22;20127;48.962;8.342;2022-10-04T18:40:41;13.60;99.90
33825;DHT22;20127;48.962;8.342;2022-10-04T18:43:50;13.60;99.90
33825;DHT22;20127;48.962;8.342;2022-10-04T18:46:55;13.50;99.90
33825;DHT22;20127;48.962;8.342;2022-10-04T18:49:59;13.40;99.90
33825;DHT22;20127;48.962;8.342;2022-10-04T18:53:30;13.30;99.90
33825;DHT22;20127;48.962;8.342;2022-10-04T18:56:39;13.20;99.90
33825;DHT22;20127;48.962;8.342;2022-10-04T18:59:51;13.20;99.90
33825;DHT22;20127;48.962;8.342;2022-10-04T19:03:20;13.10;99.90
33825;DHT22;20127;48.962;8.342;2022-10-04T19:06:28;13.10;99.90
33825;DHT22;20127;48.962;8.342;2022-10-04T19:09:43;13.00;99.90
33825;DHT22;20127;48.962;8.342;2022-10-04T19:12:55;12.90;99.90
33825;DHT22;20127;48.962;8.342;2022-10-04T19:19:41;12.70;99.90
33825;DHT22;20127;48.962;8.342;2022-10-04T19:22:52;12.70;99.90
33825;DHT22;20127;48.962;8.342;2022-10-04T19:26:02;12.60;99.90
33825;DHT22;20127;48.962;8.342;2022-10-04T19:29:19;12.60;99.90
33825;DHT22;20127;48.962;8.342;2022-10-04T19:32:28;12.60;99.90
33825;DHT22;20127;48.962;8.342;2022-10-04T19:35:48;12.60;99.90
33825;DHT22;20127;48.962;8.342;2022-10-04T19:39:00;12.60;99.90
33825;DHT22;20127;48.962;8.342;2022-10-04T19:42:10;12.50;99.90
33825;DHT22;20127;48.962;8.342;2022-10-04T19:45:21;12.50;99.90
33825;DHT22;20127;48.962;8.342;2022-10-04T19:48:25;12.50;99.90
33825;DHT22;20127;48.962;8.342;2022-10-04T19:51:32;12.40;99.90
33825;DHT22;20127;48.962;8.342;2022-10-04T19:54:38;12.40;99.90
33825;DHT22;20127;48.962;8.342;2022-10-04T19:57:41;12.40;99.90
33825;DHT22;20127;48.962;8.342;2022-10-04T20:00:47;12.40;99.90
33825;DHT22;20127;48.962;8.342;2022-10-04T20:03:50;12.30;99.90
33825;DHT22;20127;48.962;8.342;2022-10-04T20:07:15;12.30;99.90
33825;DHT22;20127;48.962;8.342;2022-10-04T20:10:28;12.20;99.90
33825;DHT22;20127;48.962;8.342;2022-10-04T20:13:31;12.20;99.90
33825;DHT22;20127;48.962;8.342;2022-10-04T20:17:03;12.10;99.90
33825;DHT22;20127;48.962;8.342;2022-10-04T20:20:05;12.00;99.90
33825;DHT22;20127;48.962;8.342;2022-10-04T20:23:08;12.00;99.90
33825;DHT22;20127;48.962;8.342;2022-10-04T20:26:35;12.00;99.90
33825;DHT22;20127;48.962;8.342;2022-10-04T20:30:01;12.00;99.90
33825;DHT22;20127;48.962;8.342;2022-10-04T20:33:06;12.00;99.90
33825;DHT22;20127;48.962;8.342;2022-10-04T20:36:10;12.00;99.90
33825;DHT22;20127;48.962;8.342;2022-10-04T20:43:23;11.90;99.90
33825;DHT22;20127;48.962;8.342;2022-10-04T20:46:32;11.80;99.90
33825;DHT22;20127;48.962;8.342;2022-10-04T20:49:37;11.80;99.90
33825;DHT22;20127;48.962;8.342;2022-10-04T20:52:44;11.70;99.90
33825;DHT22;20127;48.962;8.342;2022-10-04T20:55:47;11.80;99.90
33825;DHT22;20127;48.962;8.342;2022-10-04T20:58:50;11.70;99.90
33825;DHT22;20127;48.962;8.342;2022-10-04T21:02:01;11.60;99.90
33825;DHT22;20127;48.962;8.342;2022-10-04T21:05:11;11.60;99.90
33825;DHT22;20127;48.962;8.342;2022-10-04T21:08:21;11.60;99.90
33825;DHT22;20127;48.962;8.342;2022-10-04T21:11:42;11.50;99.90
33825;DHT22;20127;48.962;8.342;2022-10-04T21:15:00;11.50;99.90
33825;DHT22;20127;48.962;8.342;2022-10-04T21:18:05;11.40;99.90
33825;DHT22;20127;48.962;8.342;2022-10-04T21:21:07;11.40;99.90
33825;DHT22;20127;48.962;8.342;2022-10-04T21:24:25;11.40;99.90
33825;DHT22;20127;48.962;8.342;2022-10-04T21:27:28;11.30;99.90
33825;DHT22;20127;48.962;8.342;2022-10-04T21:30:30;11.30;99.90
33825;DHT22;20127;48.962;8.342;2022-10-04T21:33:34;11.30;99.90
33825;DHT22;20127;48.962;8.342;2022-10-04T21:36:36;11.30;99.90
33825;DHT22;20127;48.962;8.342;2022-10-04T21:39:38;11.20;99.90
33825;DHT22;20127;48.962;8.342;2022-10-04T21:42:40;11.20;99.90
33825;DHT22;20127;48.962;8.342;2022-10-04T21:45:41;11.10;99.90
33825;DHT22;20127;48.962;8.342;2022-10-04T21:48:44;11.10;99.90
33825;DHT22;20127;48.962;8.342;2022-10-04T21:51:46;11.00;99.90
33825;DHT22;20127;48.962;8.342;2022-10-04T21:54:48;11.00;99.90
33825;DHT22;20127;48.962;8.342;2022-10-04T21:57:49;10.90;99.90
33825;DHT22;20127;48.962;8.342;2022-10-04T22:00:51;10.90;99.90
33825;DHT22;20127;48.962;8.342;2022-10-04T22:03:54;10.80;99.90
33825;DHT22;20127;48.962;8.342;2022-10-04T22:06:56;10.80;99.90
33825;DHT22;20127;48.962;8.342;2022-10-04T22:09:57;10.70;99.90
33825;DHT22;20127;48.962;8.342;2022-10-04T22:12:59;10.70;99.90
33825;DHT22;20127;48.962;8.342;2022-10-04T22:16:01;10.70;99.90
33825;DHT22;20127;48.962;8.342;2022-10-04T22:19:04;10.60;99.90
33825;DHT22;20127;48.962;8.342;2022-10-04T22:22:12;10.60;99.90
33825;DHT22;20127;48.962;8.342;2022-10-04T22:25:15;10.60;99.90
33825;DHT22;20127;48.962;8.342;2022-10-04T22:28:20;10.60;99.90
33825;DHT22;20127;48.962;8.342;2022-10-04T22:31:25;10.60;99.90
33825;DHT22;20127;48.962;8.342;2022-10-04T22:34:30;10.50;99.90
33825;DHT22;20127;48.962;8.342;2022-10-04T22:37:32;10.50;99.90
33825;DHT22;20127;48.962;8.342;2022-10-04T22:40:34;10.50;99.90
33825;DHT22;20127;48.962;8.342;2022-10-04T22:43:36;10.40;99.90
33825;DHT22;20127;48.962;8.342;2022-10-04T22:46:40;10.40;99.90
33825;DHT22;20127;48.962;8.342;2022-10-04T22:49:46;10.30;99.90
33825;DHT22;20127;48.962;8.342;2022-10-04T22:52:48;10.30;99.90
33825;DHT22;20127;48.962;8.342;2022-10-04T22:55:50;10.20;99.90
33825;DHT22;20127;48.962;8.342;2022-10-04T22:58:56;10.20;99.90
33825;DHT22;20127;48.962;8.342;2022-10-04T23:01:58;10.20;99.90
33825;DHT22;20127;48.962;8.342;2022-10-04T23:05:11;10.20;99.90
33825;DHT22;20127;48.962;8.342;2022-10-04T23:08:14;10.20;99.90
33825;DHT22;20127;48.962;8.342;2022-10-04T23:11:17;10.20;99.90